»·PEaware :: N281VT KLAX-KSAN

N281VT :: KLAX-KSAN

FLIGHT INFORMATION

Flight Status: Arrived
Operator: Privately registered:
United States
More flights under this callsign
Pilot: Gopalakrishna Pillai Sulekha S. (22834)
Aircraft: BEECH AIRCRAFT BARON
(BE58)
More flights by this aircraft type
Origin: KLAX Los Angeles Intl
United States
Destination: KSAN San Diego Intl-Lindbergh
United States
More flights between these airports :: More routes between these airports
Route: +
File this flight plan on PilotEdge
Remarks: NO TEST
Altitude:
(Current/Filed)
3,500ft
Speed:
(Current/Filed)
150kts
Departed: 22-Mar-19 09:12 AM
Arrived: 22-Mar-19 10:12 AM
Distance/Time
Traveled:
95nm/1:00
Distance/Time
To Go:
Arrived

Flight Plot

Page will automatically refresh every two minutes.


Map Options




Map Legend


Flown Route
Filed Route
Departure Airport
Arrival Airport
Navaid (VOR, NDB)
Fix

Horizontal Profiles

Position Reports

Time Latitude Longitude Heading Altitude Ground
Speed
22-Mar-19 08:56 33.932728 -118.399126 21 112ft 0kts
22-Mar-19 08:57 33.932728 -118.399126 21 112ft 0kts
22-Mar-19 08:57 33.932728 -118.399126 21 112ft 0kts
22-Mar-19 08:58 33.932728 -118.399126 21 112ft 0kts
22-Mar-19 09:00 33.932728 -118.399126 21 112ft 0kts
22-Mar-19 09:00 33.932728 -118.399126 21 112ft 0kts
22-Mar-19 09:01 33.932728 -118.399126 21 112ft 0kts
22-Mar-19 09:03 33.932728 -118.399126 21 112ft 0kts
22-Mar-19 09:03 33.932728 -118.399126 21 112ft 0kts
22-Mar-19 09:04 33.932728 -118.399126 21 112ft 0kts
22-Mar-19 09:05 33.932737 -118.399122 21 112ft 1kts
22-Mar-19 09:06 33.934767 -118.396083 83 106ft 26kts
22-Mar-19 09:07 33.935898 -118.384974 83 99ft 26kts
22-Mar-19 09:08 33.936503 -118.382770 357 96ft 0kts
22-Mar-19 09:09 33.936503 -118.382770 357 96ft 0kts
22-Mar-19 09:10 33.936525 -118.382772 357 96ft 3kts
22-Mar-19 09:11 33.934021 -118.406415 264 720ft 108kts
22-Mar-19 09:12 33.931109 -118.449640 266 1843ft 134kts
22-Mar-19 09:13 33.924339 -118.496876 224 2419ft 170kts
22-Mar-19 09:14 33.888408 -118.482878 144 3102ft 124kts
22-Mar-19 09:15 33.860834 -118.457765 144 3400ft 131kts
22-Mar-19 09:16 33.830065 -118.429898 144 3475ft 145kts
22-Mar-19 09:17 33.797051 -118.400115 144 3472ft 150kts
22-Mar-19 09:18 33.763272 -118.369661 144 3480ft 151kts
22-Mar-19 09:19 33.729278 -118.339021 144 3483ft 156kts
22-Mar-19 09:20 33.698191 -118.301116 140 3486ft 163kts
22-Mar-19 09:21 33.662644 -118.266395 142 3481ft 164kts
22-Mar-19 09:22 33.627020 -118.231815 142 3481ft 165kts
22-Mar-19 09:23 33.592916 -118.195404 126 3482ft 165kts
22-Mar-19 09:24 33.566635 -118.149649 125 3481ft 165kts
22-Mar-19 09:25 33.540461 -118.103755 120 3470ft 166kts
22-Mar-19 09:26 33.521428 -118.053341 114 3472ft 166kts
22-Mar-19 09:27 33.502732 -118.002672 114 3472ft 166kts
22-Mar-19 09:28 33.482588 -117.952877 131 3476ft 166kts
22-Mar-19 09:29 33.449385 -117.910390 139 3474ft 179kts
22-Mar-19 09:30 33.411159 -117.870861 140 3473ft 181kts
22-Mar-19 09:31 33.372941 -117.831420 140 3472ft 182kts
22-Mar-19 09:32 33.332322 -117.795246 148 3473ft 181kts
22-Mar-19 09:33 33.290777 -117.761111 146 3473ft 181kts
22-Mar-19 09:34 33.251212 -117.723294 141 3463ft 182kts
22-Mar-19 09:35 33.214399 -117.681774 135 3464ft 182kts
22-Mar-19 09:36 33.178916 -117.638303 135 3464ft 182kts
22-Mar-19 09:37 33.147279 -117.599425 135 3444ft 123kts
22-Mar-19 09:38 33.124104 -117.570549 135 3479ft 128kts
22-Mar-19 09:39 33.103670 -117.532896 128 3475ft 140kts
22-Mar-19 09:40 33.090016 -117.493064 89 3475ft 141kts
22-Mar-19 09:41 33.059078 -117.476567 161 3470ft 138kts
22-Mar-19 09:42 33.023872 -117.457253 158 3473ft 139kts
22-Mar-19 09:43 32.992100 -117.430908 135 3473ft 141kts
22-Mar-19 09:44 32.964713 -117.397467 140 3473ft 141kts
22-Mar-19 09:45 32.967107 -117.363040 21 3477ft 136kts
22-Mar-19 09:46 33.002242 -117.345216 21 3472ft 137kts
22-Mar-19 09:47 33.038194 -117.332464 338 3472ft 133kts
22-Mar-19 09:48 33.070915 -117.353227 329 3472ft 133kts
22-Mar-19 09:49 33.103194 -117.374557 329 3472ft 133kts
22-Mar-19 09:50 33.128449 -117.405760 305 3472ft 132kts
22-Mar-19 09:51 33.149407 -117.441570 284 3467ft 131kts
22-Mar-19 09:52 33.126118 -117.450650 134 3479ft 123kts
22-Mar-19 09:53 33.104180 -117.420832 133 3469ft 115kts
22-Mar-19 09:54 33.090095 -117.390056 62 3470ft 107kts
22-Mar-19 09:55 33.116386 -117.384876 326 3498ft 120kts
22-Mar-19 09:56 33.113393 -117.420014 210 3475ft 142kts
22-Mar-19 09:57 33.081521 -117.397864 132 3472ft 146kts
22-Mar-19 09:58 33.055956 -117.363139 136 3463ft 126kts
22-Mar-19 09:59 33.028474 -117.341435 147 3480ft 114kts
22-Mar-19 10:00 32.998010 -117.325279 165 3495ft 132kts
22-Mar-19 10:01 32.959985 -117.317468 165 3483ft 140kts
22-Mar-19 10:02 32.922502 -117.304948 154 3475ft 138kts
22-Mar-19 10:03 32.897257 -117.272478 126 3473ft 137kts
22-Mar-19 10:04 32.871965 -117.237814 128 3472ft 138kts
22-Mar-19 10:05 32.845066 -117.205622 131 3472ft 138kts
22-Mar-19 10:06 32.814650 -117.177940 164 3483ft 144kts
22-Mar-19 10:07 32.773702 -117.178547 188 2433ft 161kts
22-Mar-19 10:08 32.737830 -117.168743 99 905ft 110kts
22-Mar-19 10:09 32.731160 -117.135911 148 893ft 102kts
22-Mar-19 10:10 32.726263 -117.159501 286 461ft 113kts
22-Mar-19 10:11 32.733549 -117.188107 343 17ft 22kts
22-Mar-19 10:12 32.733864 -117.188092 15 17ft 0kts
22-Mar-19 10:13 32.732769 -117.181695 106 16ft 45kts

Navigation Log

Ident Type
Flight plan parsing failed, navigation log unavailable